createdAt,value
2023-02-23T00:00:33.326Z,33.00
2023-02-23T00:03:02.062Z,34.63
2023-02-23T00:05:32.126Z,37.80
2023-02-23T00:07:59.293Z,35.67
2023-02-23T00:10:30.647Z,35.17
2023-02-23T00:13:01.113Z,33.58
2023-02-23T00:15:29.896Z,34.60
2023-02-23T00:17:58.000Z,40.85
2023-02-23T00:20:27.499Z,40.85
2023-02-23T00:22:55.924Z,36.15
2023-02-23T00:25:24.214Z,34.88
2023-02-23T00:27:52.543Z,36.00
2023-02-23T00:30:20.667Z,36.38
2023-02-23T00:32:47.613Z,31.98
2023-02-23T00:35:17.734Z,28.00
2023-02-23T00:37:46.176Z,27.87
2023-02-23T00:40:16.493Z,28.12
2023-02-23T00:42:45.286Z,25.70
2023-02-23T00:45:13.959Z,20.55
2023-02-23T00:47:45.497Z,30.80
2023-02-23T00:50:17.382Z,25.90
2023-02-23T00:52:44.872Z,25.27
2023-02-23T00:55:14.150Z,26.65
2023-02-23T00:57:41.820Z,25.70
2023-02-23T01:00:19.833Z,25.37
2023-02-23T01:02:49.831Z,25.27
2023-02-23T01:05:17.059Z,19.50
2023-02-23T01:07:47.117Z,23.70
2023-02-23T01:10:20.363Z,22.55
2023-02-23T01:12:48.904Z,20.77
2023-02-23T01:15:15.941Z,23.38
2023-02-23T01:17:43.241Z,23.55
2023-02-23T01:20:17.966Z,24.02
2023-02-23T01:22:49.830Z,23.98
2023-02-23T01:25:17.721Z,23.08
2023-02-23T01:27:45.349Z,19.83
2023-02-23T01:30:15.127Z,19.15
2023-02-23T01:32:42.051Z,20.48
2023-02-23T01:35:10.464Z,23.67
2023-02-23T01:37:40.695Z,23.80
2023-02-23T01:40:28.786Z,23.87
2023-02-23T01:43:12.501Z,23.23
2023-02-23T01:45:40.756Z,20.83
2023-02-23T01:48:38.129Z,22.42
2023-02-23T01:51:13.977Z,22.62
2023-02-23T01:53:44.636Z,22.67
2023-02-23T01:56:15.434Z,21.98
2023-02-23T01:58:45.666Z,21.58
2023-02-23T02:01:12.953Z,20.48
2023-02-23T02:03:46.929Z,19.70
2023-02-23T02:06:15.881Z,19.12
2023-02-23T02:08:50.970Z,18.45
2023-02-23T02:11:36.270Z,18.23
2023-02-23T02:14:13.348Z,19.60
2023-02-23T02:17:05.100Z,18.83
2023-02-23T02:20:05.570Z,19.70
2023-02-23T02:22:58.322Z,23.67
2023-02-23T02:25:33.820Z,23.55
2023-02-23T02:28:25.634Z,23.42
2023-02-23T02:31:30.390Z,25.80
2023-02-23T02:34:12.497Z,23.55
2023-02-23T02:36:42.282Z,21.52
2023-02-23T02:39:38.132Z,21.60
2023-02-23T02:42:23.217Z,21.02
2023-02-23T02:44:59.407Z,21.45
2023-02-23T02:47:34.814Z,20.70
2023-02-23T02:50:12.636Z,20.73
2023-02-23T02:53:01.631Z,20.30
2023-02-23T02:55:34.545Z,22.33
2023-02-23T02:58:02.835Z,24.90
2023-02-23T03:00:56.724Z,22.25
2023-02-23T03:03:51.449Z,21.48
2023-02-23T03:06:39.242Z,21.52
2023-02-23T03:09:39.592Z,21.23
2023-02-23T03:13:08.656Z,22.98
2023-02-23T03:16:27.058Z,20.48
2023-02-23T03:19:34.255Z,21.77
2023-02-23T03:22:40.979Z,20.90
2023-02-23T03:25:34.542Z,19.48
2023-02-23T03:28:33.202Z,18.65
2023-02-23T03:31:32.922Z,19.73
2023-02-23T03:34:48.186Z,19.23
2023-02-23T03:37:45.100Z,19.40
2023-02-23T03:40:43.814Z,17.30
2023-02-23T03:43:33.788Z,18.08
2023-02-23T03:49:06.804Z,16.15
2023-02-23T03:51:54.576Z,15.88
2023-02-23T03:54:56.328Z,15.23
2023-02-23T03:57:44.680Z,15.40
2023-02-23T04:00:34.851Z,16.00
2023-02-23T04:03:21.376Z,15.70
2023-02-23T04:06:07.359Z,17.60
2023-02-23T04:08:55.928Z,18.73
2023-02-23T04:11:47.095Z,21.60
2023-02-23T04:14:19.010Z,20.42
2023-02-23T04:16:46.080Z,23.17
2023-02-23T04:19:12.991Z,23.02
2023-02-23T04:21:39.853Z,21.17
2023-02-23T04:24:06.773Z,23.45
2023-02-23T04:26:33.634Z,22.75
2023-02-23T04:29:00.587Z,23.17
2023-02-23T04:31:27.754Z,21.87
2023-02-23T04:33:54.742Z,22.02
2023-02-23T04:38:48.324Z,22.62
2023-02-23T04:41:15.201Z,24.15
2023-02-23T04:43:42.041Z,23.75
2023-02-23T04:48:36.247Z,23.48
2023-02-23T04:51:03.217Z,23.05
2023-02-23T04:53:30.088Z,24.40
2023-02-23T04:55:56.940Z,26.02
2023-02-23T05:00:50.528Z,22.55
2023-02-23T05:03:20.432Z,21.37
2023-02-23T05:05:47.421Z,23.67
2023-02-23T05:08:14.353Z,23.98
2023-02-23T05:10:41.232Z,23.55
2023-02-23T05:13:08.146Z,25.98
2023-02-23T05:15:34.997Z,24.42
2023-02-23T05:20:28.580Z,23.40
2023-02-23T05:22:55.450Z,25.10
2023-02-23T05:27:49.019Z,24.05
2023-02-23T05:30:16.048Z,22.08
2023-02-23T05:32:42.958Z,23.27
2023-02-23T05:35:10.043Z,22.75
2023-02-23T05:37:37.008Z,23.40
2023-02-23T05:40:04.489Z,25.15
2023-02-23T05:42:31.336Z,24.60
2023-02-23T05:47:24.907Z,24.00
2023-02-23T05:49:51.860Z,22.15
2023-02-23T05:52:18.744Z,24.00
2023-02-23T05:54:46.872Z,23.83
2023-02-23T05:57:13.775Z,23.27
2023-02-23T05:59:40.766Z,24.33
2023-02-23T06:02:07.664Z,23.05
2023-02-23T06:04:34.569Z,24.42
2023-02-23T06:07:01.489Z,25.12
2023-02-23T06:09:28.397Z,24.08
2023-02-23T06:11:55.344Z,24.15
2023-02-23T06:14:22.157Z,23.17
2023-02-23T06:19:18.955Z,22.77
2023-02-23T06:21:46.884Z,23.90
2023-02-23T06:24:13.794Z,22.80
2023-02-23T06:26:41.568Z,22.42
2023-02-23T06:29:09.232Z,26.67
2023-02-23T06:31:36.200Z,26.15
2023-02-23T06:34:03.175Z,22.48
2023-02-23T06:36:30.411Z,24.08
2023-02-23T06:39:00.382Z,23.12
2023-02-23T06:41:27.472Z,22.90
2023-02-23T06:43:54.368Z,23.90
2023-02-23T06:46:21.468Z,23.52
2023-02-23T06:48:48.390Z,24.12
2023-02-23T06:51:15.331Z,23.95
2023-02-23T06:53:42.182Z,24.40
2023-02-23T06:58:38.533Z,22.95
2023-02-23T07:01:05.591Z,22.23
2023-02-23T07:03:32.623Z,23.38
2023-02-23T07:05:59.636Z,22.37
2023-02-23T07:08:26.570Z,23.12
2023-02-23T07:10:53.410Z,21.27
2023-02-23T07:15:47.786Z,21.90
2023-02-23T07:18:14.647Z,23.90
2023-02-23T07:23:08.265Z,20.60
2023-02-23T07:25:35.410Z,21.52
2023-02-23T07:28:03.342Z,21.67
2023-02-23T07:30:30.306Z,20.92
2023-02-23T07:32:57.231Z,20.62
2023-02-23T07:35:24.095Z,20.33
2023-02-23T07:37:51.012Z,21.10
2023-02-23T07:40:19.513Z,21.05
2023-02-23T07:42:46.355Z,21.50
2023-02-23T07:47:39.979Z,19.37
2023-02-23T07:50:13.047Z,19.70
2023-02-23T07:52:41.340Z,18.27
2023-02-23T07:55:09.035Z,18.70
2023-02-23T07:57:35.953Z,18.27
2023-02-23T08:00:03.219Z,17.35
2023-02-23T08:02:30.144Z,14.15
2023-02-23T08:04:56.989Z,14.43
2023-02-23T08:09:52.012Z,12.98
2023-02-23T08:12:18.896Z,13.40
2023-02-23T08:14:45.872Z,12.85
2023-02-23T08:17:12.875Z,13.77
2023-02-23T08:19:40.273Z,12.90
2023-02-23T08:22:09.918Z,13.38
2023-02-23T08:24:37.583Z,14.18
2023-02-23T08:27:04.764Z,12.50
2023-02-23T08:29:31.701Z,13.70
2023-02-23T08:31:58.762Z,12.73
2023-02-23T08:34:25.753Z,12.48
2023-02-23T08:39:21.745Z,10.85
2023-02-23T08:41:48.658Z,11.80
2023-02-23T08:44:15.615Z,12.37
2023-02-23T08:46:42.792Z,12.80
2023-02-23T08:49:11.628Z,12.05
2023-02-23T08:51:41.664Z,11.55
2023-02-23T08:54:14.385Z,12.20
2023-02-23T08:56:41.768Z,10.77
2023-02-23T08:59:09.515Z,9.40
2023-02-23T09:01:37.376Z,11.63
2023-02-23T09:04:05.679Z,12.82
2023-02-23T09:06:35.334Z,8.90
2023-02-23T09:09:03.096Z,10.88
2023-02-23T09:11:29.980Z,8.73
2023-02-23T09:13:56.876Z,11.70
2023-02-23T09:16:23.854Z,9.98
2023-02-23T09:18:50.709Z,11.12
2023-02-23T09:23:51.484Z,10.85
2023-02-23T09:26:19.272Z,10.43
2023-02-23T09:28:46.682Z,10.15
2023-02-23T09:31:16.951Z,10.27
2023-02-23T09:33:44.014Z,7.47
2023-02-23T09:36:14.617Z,9.38
2023-02-23T09:38:41.501Z,10.25
2023-02-23T09:41:26.604Z,11.00
2023-02-23T09:44:02.281Z,10.30
2023-02-23T09:46:38.934Z,8.00
2023-02-23T09:49:12.923Z,10.88
2023-02-23T09:51:42.659Z,11.10
2023-02-23T09:54:11.952Z,9.68
2023-02-23T09:56:41.373Z,9.73
2023-02-23T09:59:14.783Z,11.68
2023-02-23T10:02:06.383Z,9.90
2023-02-23T10:05:12.030Z,5.70
2023-02-23T10:08:02.694Z,8.10
2023-02-23T10:10:53.187Z,9.65
2023-02-23T10:13:27.747Z,11.02
2023-02-23T10:16:38.058Z,6.95
2023-02-23T10:19:29.494Z,7.60
2023-02-23T10:21:59.986Z,10.38
2023-02-23T10:25:15.225Z,9.90
2023-02-23T10:27:45.631Z,9.38
2023-02-23T10:30:29.245Z,8.25
2023-02-23T10:32:59.452Z,9.10
2023-02-23T10:35:28.758Z,9.77
2023-02-23T10:37:56.828Z,7.15
2023-02-23T10:40:27.747Z,9.13
2023-02-23T10:42:56.064Z,13.50
2023-02-23T10:45:25.706Z,10.68
2023-02-23T10:47:58.819Z,10.80
2023-02-23T10:50:29.272Z,10.52
2023-02-23T10:53:05.057Z,10.73
2023-02-23T10:55:32.903Z,9.88
2023-02-23T10:58:17.058Z,10.45
2023-02-23T11:00:57.439Z,10.32
2023-02-23T11:03:42.885Z,12.07
2023-02-23T11:06:29.735Z,12.23
2023-02-23T11:08:56.837Z,10.20
2023-02-23T11:11:29.019Z,10.15
2023-02-23T11:13:59.974Z,11.18
2023-02-23T11:16:31.558Z,9.60
2023-02-23T11:19:05.732Z,9.68
2023-02-23T11:21:34.638Z,8.80
2023-02-23T11:24:11.945Z,9.75
2023-02-23T11:45:58.432Z,8.27
2023-02-23T11:48:49.254Z,7.87
2023-02-23T11:51:27.633Z,9.07
2023-02-23T11:53:54.754Z,9.25
2023-02-23T11:56:25.706Z,9.82
2023-02-23T11:59:02.404Z,9.23
2023-02-23T12:01:41.889Z,8.93
2023-02-23T12:04:10.290Z,8.85
2023-02-23T12:06:39.977Z,8.98
2023-02-23T12:09:21.258Z,9.45
2023-02-23T12:12:05.302Z,9.02
2023-02-23T12:14:33.785Z,9.05
2023-02-23T12:17:05.415Z,9.10
2023-02-23T12:19:37.191Z,9.13
2023-02-23T12:22:25.825Z,10.18
2023-02-23T12:24:57.877Z,9.40
2023-02-23T12:27:41.721Z,11.25
2023-02-23T12:30:19.128Z,9.45
2023-02-23T12:35:18.642Z,8.43
2023-02-23T12:37:48.853Z,9.25
2023-02-23T12:40:20.029Z,8.55
2023-02-23T12:42:54.619Z,9.35
2023-02-23T12:45:26.842Z,7.70
2023-02-23T12:48:00.967Z,9.95
2023-02-23T12:50:32.357Z,8.90
2023-02-23T12:53:08.334Z,9.82
2023-02-23T12:55:45.323Z,9.15
2023-02-23T12:58:24.925Z,10.30
2023-02-23T13:01:02.688Z,9.63
2023-02-23T13:03:33.112Z,8.57
2023-02-23T13:06:15.151Z,9.52
2023-02-23T13:09:00.360Z,9.82
2023-02-23T13:12:06.918Z,9.48
2023-02-23T13:14:56.185Z,9.40
2023-02-23T13:17:30.226Z,9.18
2023-02-23T13:20:02.063Z,9.65
2023-02-23T13:22:44.033Z,9.10
2023-02-23T13:25:40.240Z,9.25
2023-02-23T13:28:09.671Z,8.77
2023-02-23T13:30:42.616Z,8.93
2023-02-23T13:33:22.112Z,9.05
2023-02-23T13:35:50.291Z,8.25
2023-02-23T13:38:30.216Z,8.73
2023-02-23T13:41:34.341Z,8.35
2023-02-23T13:44:25.290Z,9.88
2023-02-23T13:47:07.194Z,8.93
2023-02-23T13:49:55.412Z,9.00
2023-02-23T13:52:40.094Z,8.77
2023-02-23T13:55:48.721Z,9.43
2023-02-23T13:58:19.477Z,10.02
2023-02-23T14:00:54.452Z,9.38
2023-02-23T14:03:27.614Z,10.10
2023-02-23T14:05:57.811Z,9.18
2023-02-23T14:08:34.774Z,10.40
2023-02-23T14:11:02.018Z,9.63
2023-02-23T14:13:34.185Z,9.48
2023-02-23T14:16:17.162Z,11.80
2023-02-23T14:19:05.702Z,10.70
2023-02-23T14:21:59.176Z,9.25
2023-02-23T14:24:27.606Z,9.82
2023-02-23T14:27:34.506Z,8.45
2023-02-23T14:30:13.386Z,9.00
2023-02-23T14:32:45.654Z,9.52
2023-02-23T14:35:34.328Z,9.15
2023-02-23T14:38:05.609Z,8.93
2023-02-23T14:40:39.826Z,8.98
2023-02-23T14:43:32.467Z,9.73
2023-02-23T14:46:01.419Z,9.95
2023-02-23T14:48:31.401Z,10.48
2023-02-23T14:51:25.335Z,9.65
2023-02-23T14:53:53.997Z,9.25
2023-02-23T14:56:28.051Z,9.30
2023-02-23T14:58:59.091Z,8.75
2023-02-23T15:01:38.171Z,8.70
2023-02-23T15:04:10.640Z,8.30
2023-02-23T15:06:39.519Z,8.63
2023-02-23T15:09:17.021Z,8.60
2023-02-23T15:11:46.468Z,10.35
2023-02-23T15:14:26.879Z,8.30
2023-02-23T15:16:56.227Z,10.35
2023-02-23T15:19:33.634Z,8.98
2023-02-23T15:24:32.056Z,9.88
2023-02-23T15:26:59.053Z,9.77
2023-02-23T15:29:32.006Z,9.63
2023-02-23T15:32:21.514Z,9.88
2023-02-23T15:34:48.748Z,9.95
2023-02-23T15:40:17.040Z,8.38
2023-02-23T15:42:50.354Z,9.00
2023-02-23T15:45:40.497Z,9.30
2023-02-23T15:48:18.415Z,9.75
2023-02-23T15:50:50.364Z,9.00
2023-02-23T15:53:34.568Z,9.27
2023-02-23T15:56:14.415Z,9.80
2023-02-23T15:58:56.480Z,9.18
2023-02-23T16:01:26.727Z,9.40
2023-02-23T16:04:12.257Z,9.35
2023-02-23T16:06:45.796Z,9.50
2023-02-23T16:09:26.145Z,8.93
2023-02-23T16:12:01.781Z,8.60
2023-02-23T16:14:43.950Z,9.13
2023-02-23T16:17:22.411Z,8.98
2023-02-23T16:19:49.366Z,10.60
2023-02-23T16:22:25.870Z,10.23
2023-02-23T16:25:02.802Z,12.95
2023-02-23T16:27:30.129Z,12.73
2023-02-23T16:30:06.944Z,12.43
2023-02-23T16:32:37.055Z,13.07
2023-02-23T16:35:19.659Z,14.05
2023-02-23T16:37:59.520Z,11.82
2023-02-23T16:40:26.395Z,16.55
2023-02-23T16:42:54.071Z,15.15
2023-02-23T16:45:21.855Z,15.82
2023-02-23T16:47:49.501Z,15.73
2023-02-23T16:50:20.753Z,16.52
2023-02-23T16:52:53.702Z,14.85
2023-02-23T16:55:26.142Z,13.55
2023-02-23T16:57:58.735Z,15.55
2023-02-23T17:00:30.337Z,15.40
2023-02-23T17:03:00.701Z,18.25
2023-02-23T17:05:28.620Z,19.55
2023-02-23T17:07:57.717Z,11.68
2023-02-23T17:10:34.874Z,11.32
2023-02-23T17:13:08.225Z,11.00
2023-02-23T17:15:39.672Z,11.10
2023-02-23T17:18:06.707Z,10.38
2023-02-23T17:20:34.286Z,12.63
2023-02-23T17:23:02.349Z,15.35
2023-02-23T17:25:29.560Z,18.40
2023-02-23T17:27:57.516Z,21.58
2023-02-23T17:30:24.822Z,21.12
2023-02-23T17:32:53.119Z,24.42
2023-02-23T17:35:20.232Z,26.42
2023-02-23T17:37:47.519Z,26.25
2023-02-23T17:40:17.544Z,20.35
2023-02-23T17:42:44.592Z,18.23
2023-02-23T17:45:11.594Z,18.12
2023-02-23T17:47:42.816Z,17.20
2023-02-23T17:50:10.679Z,17.80
2023-02-23T17:52:37.596Z,22.45
2023-02-23T17:55:04.697Z,21.20
2023-02-23T17:57:33.094Z,21.45
2023-02-23T17:59:59.966Z,22.85
2023-02-23T18:02:27.620Z,23.58
2023-02-23T18:04:54.473Z,24.95
2023-02-23T18:07:21.829Z,26.98
2023-02-23T18:09:50.291Z,26.50
2023-02-23T18:12:19.536Z,27.20
2023-02-23T18:14:46.877Z,30.45
2023-02-23T18:17:15.776Z,29.02
2023-02-23T18:19:43.334Z,29.95
2023-02-23T18:22:10.863Z,22.30
2023-02-23T18:24:38.281Z,22.37
2023-02-23T18:27:05.474Z,32.38
2023-02-23T18:29:34.376Z,16.85
2023-02-23T18:32:02.451Z,12.15
2023-02-23T18:34:30.292Z,11.05
2023-02-23T18:37:02.382Z,11.65
2023-02-23T18:39:31.218Z,13.38
2023-02-23T18:41:58.780Z,13.65
2023-02-23T18:44:26.502Z,13.88
2023-02-23T18:46:54.984Z,13.77
2023-02-23T18:49:24.644Z,14.32
2023-02-23T18:51:51.598Z,14.98
2023-02-23T18:54:18.996Z,15.23
2023-02-23T18:56:47.379Z,14.95
2023-02-23T18:59:15.538Z,15.75
2023-02-23T19:01:45.470Z,15.55
2023-02-23T19:04:13.078Z,15.07
2023-02-23T19:06:43.453Z,17.33
2023-02-23T19:09:13.473Z,17.95
2023-02-23T19:11:43.705Z,17.52
2023-02-23T19:14:18.345Z,17.87
2023-02-23T19:16:46.896Z,19.50
2023-02-23T19:19:14.346Z,18.75
2023-02-23T19:21:41.340Z,18.65
2023-02-23T19:24:08.629Z,17.52
2023-02-23T19:26:37.379Z,16.70
2023-02-23T19:29:04.783Z,16.20
2023-02-23T19:31:32.190Z,17.65
2023-02-23T19:33:59.875Z,18.73
2023-02-23T19:36:31.917Z,18.25
2023-02-23T19:39:10.620Z,19.30
2023-02-23T19:41:39.680Z,19.77
2023-02-23T19:44:06.804Z,20.23
2023-02-23T19:46:35.070Z,19.67
2023-02-23T19:49:02.024Z,18.87
2023-02-23T19:51:29.195Z,21.90
2023-02-23T19:54:00.136Z,20.55
2023-02-23T19:56:28.182Z,19.52
2023-02-23T19:58:56.026Z,21.12
2023-02-23T20:01:27.605Z,21.58
2023-02-23T20:04:02.030Z,21.35
2023-02-23T20:06:32.131Z,20.10
2023-02-23T20:09:00.261Z,20.73
2023-02-23T20:11:27.662Z,23.48
2023-02-23T20:13:57.129Z,21.50
2023-02-23T20:16:29.727Z,21.15
2023-02-23T20:18:57.644Z,19.55
2023-02-23T20:21:26.898Z,22.83
2023-02-23T20:23:55.424Z,22.52
2023-02-23T20:26:26.627Z,24.85
2023-02-23T20:28:57.999Z,18.83
2023-02-23T20:31:29.151Z,21.48
2023-02-23T20:33:58.710Z,23.58
2023-02-23T20:36:26.157Z,24.70
2023-02-23T20:38:53.358Z,18.37
2023-02-23T20:41:20.860Z,19.17
2023-02-23T20:43:47.921Z,19.10
2023-02-23T20:46:16.554Z,20.00
2023-02-23T20:48:43.809Z,20.40
2023-02-23T20:51:13.871Z,19.30
2023-02-23T20:53:41.126Z,19.48
2023-02-23T20:56:09.780Z,19.95
2023-02-23T20:58:36.986Z,20.00
2023-02-23T21:01:07.071Z,19.05
2023-02-23T21:03:35.740Z,19.77
2023-02-23T21:06:02.680Z,18.85
2023-02-23T21:08:30.579Z,18.20
2023-02-23T21:10:57.492Z,18.60
2023-02-23T21:13:26.602Z,19.23
2023-02-23T21:16:01.296Z,19.30
2023-02-23T21:18:29.350Z,20.02
2023-02-23T21:20:57.016Z,19.17
2023-02-23T21:23:24.677Z,18.50
2023-02-23T21:25:53.397Z,18.62
2023-02-23T21:28:20.901Z,16.55
2023-02-23T21:30:47.796Z,17.37
2023-02-23T21:33:15.312Z,15.80
2023-02-23T21:35:42.195Z,17.85
2023-02-23T21:38:10.590Z,17.23
2023-02-23T21:40:42.313Z,18.35
2023-02-23T21:43:09.420Z,18.40
2023-02-23T21:45:39.231Z,18.12
2023-02-23T21:48:06.107Z,20.70
2023-02-23T21:50:33.125Z,21.30
2023-02-23T21:53:00.112Z,19.42
2023-02-23T21:55:27.014Z,19.33
2023-02-23T21:57:53.892Z,20.15
2023-02-23T22:00:21.908Z,19.73
2023-02-23T22:02:49.442Z,20.27
2023-02-23T22:05:17.568Z,19.45
2023-02-23T22:07:49.048Z,20.95
2023-02-23T22:10:17.717Z,19.67
2023-02-23T22:12:44.702Z,20.80
2023-02-23T22:15:12.022Z,18.15
2023-02-23T22:17:38.887Z,18.85
2023-02-23T22:20:07.468Z,19.48
2023-02-23T22:22:38.151Z,20.25
2023-02-23T22:25:07.029Z,18.62
2023-02-23T22:27:33.919Z,18.83
2023-02-23T22:30:02.113Z,19.17
2023-02-23T22:32:33.183Z,19.40
2023-02-23T22:35:01.052Z,20.08
2023-02-23T22:37:31.681Z,19.35
2023-02-23T22:40:00.326Z,19.92
2023-02-23T22:42:30.845Z,19.65
2023-02-23T22:44:57.792Z,19.12
2023-02-23T22:47:24.829Z,19.25
2023-02-23T22:49:51.783Z,19.65
2023-02-23T22:52:18.677Z,18.10
2023-02-23T22:54:46.518Z,18.50
2023-02-23T22:57:13.669Z,19.42
2023-02-23T22:59:40.531Z,19.05
2023-02-23T23:02:07.404Z,17.98
2023-02-23T23:04:34.677Z,19.40
2023-02-23T23:07:01.821Z,19.30
2023-02-23T23:09:28.764Z,18.37
2023-02-23T23:11:56.837Z,18.08
2023-02-23T23:14:23.756Z,17.67
2023-02-23T23:16:50.744Z,18.65
2023-02-23T23:19:24.352Z,19.35
2023-02-23T23:21:55.360Z,18.67
2023-02-23T23:24:23.965Z,17.35
2023-02-23T23:27:00.360Z,18.05
2023-02-23T23:29:30.221Z,18.30
2023-02-23T23:31:57.483Z,17.73
2023-02-23T23:34:25.386Z,18.02
2023-02-23T23:36:53.418Z,27.58
2023-02-23T23:39:22.508Z,18.08
2023-02-23T23:41:50.375Z,17.12
2023-02-23T23:44:20.007Z,16.25
2023-02-23T23:46:47.360Z,16.60
2023-02-23T23:49:20.512Z,30.50
2023-02-23T23:51:51.057Z,18.67
2023-02-23T23:54:20.231Z,20.65
2023-02-23T23:56:47.647Z,18.95
2023-02-23T23:59:16.622Z,17.30
